sensor_id;sensor_type;location;lat;lon;timestamp;P1;durP1;ratioP1;P2;durP2;ratioP2
16320;SDS011;8269;50.990;4.494;2023-04-24T00:02:15;21.63;;;13.97;;
16320;SDS011;8269;50.990;4.494;2023-04-24T00:04:41;22.87;;;15.30;;
16320;SDS011;8269;50.990;4.494;2023-04-24T00:07:09;12.00;;;8.80;;
16320;SDS011;8269;50.990;4.494;2023-04-24T00:09:36;22.03;;;14.70;;
16320;SDS011;8269;50.990;4.494;2023-04-24T00:12:02;23.67;;;14.97;;
16320;SDS011;8269;50.990;4.494;2023-04-24T00:14:29;22.70;;;15.00;;
16320;SDS011;8269;50.990;4.494;2023-04-24T00:16:56;22.60;;;15.53;;
16320;SDS011;8269;50.990;4.494;2023-04-24T00:19:21;21.87;;;16.20;;
16320;SDS011;8269;50.990;4.494;2023-04-24T00:21:47;23.13;;;15.40;;
16320;SDS011;8269;50.990;4.494;2023-04-24T00:24:15;24.83;;;15.17;;
16320;SDS011;8269;50.990;4.494;2023-04-24T00:26:41;21.93;;;15.17;;
16320;SDS011;8269;50.990;4.494;2023-04-24T00:29:07;19.70;;;13.73;;
16320;SDS011;8269;50.990;4.494;2023-04-24T00:31:33;22.63;;;15.30;;
16320;SDS011;8269;50.990;4.494;2023-04-24T00:34:02;25.13;;;14.83;;
16320;SDS011;8269;50.990;4.494;2023-04-24T00:36:28;23.37;;;15.13;;
16320;SDS011;8269;50.990;4.494;2023-04-24T00:38:55;20.63;;;13.97;;
16320;SDS011;8269;50.990;4.494;2023-04-24T00:41:21;20.67;;;12.73;;
16320;SDS011;8269;50.990;4.494;2023-04-24T00:43:48;22.63;;;14.53;;
16320;SDS011;8269;50.990;4.494;2023-04-24T00:46:14;23.57;;;14.93;;
16320;SDS011;8269;50.990;4.494;2023-04-24T00:48:40;25.17;;;15.40;;
16320;SDS011;8269;50.990;4.494;2023-04-24T00:51:06;22.93;;;14.73;;
16320;SDS011;8269;50.990;4.494;2023-04-24T00:53:32;25.03;;;14.57;;
16320;SDS011;8269;50.990;4.494;2023-04-24T00:55:57;26.17;;;15.40;;
16320;SDS011;8269;50.990;4.494;2023-04-24T00:58:24;20.27;;;13.93;;
16320;SDS011;8269;50.990;4.494;2023-04-24T01:00:51;19.50;;;13.87;;
16320;SDS011;8269;50.990;4.494;2023-04-24T01:03:22;21.27;;;15.27;;
16320;SDS011;8269;50.990;4.494;2023-04-24T01:05:51;22.27;;;14.87;;
16320;SDS011;8269;50.990;4.494;2023-04-24T01:08:19;23.57;;;15.60;;
16320;SDS011;8269;50.990;4.494;2023-04-24T01:10:45;21.00;;;15.57;;
16320;SDS011;8269;50.990;4.494;2023-04-24T01:13:12;20.00;;;14.70;;
16320;SDS011;8269;50.990;4.494;2023-04-24T01:15:38;22.67;;;15.27;;
16320;SDS011;8269;50.990;4.494;2023-04-24T01:18:04;21.07;;;14.60;;
16320;SDS011;8269;50.990;4.494;2023-04-24T01:20:30;22.03;;;14.10;;
16320;SDS011;8269;50.990;4.494;2023-04-24T01:22:56;20.63;;;14.03;;
16320;SDS011;8269;50.990;4.494;2023-04-24T01:25:23;22.30;;;14.33;;
16320;SDS011;8269;50.990;4.494;2023-04-24T01:27:50;23.43;;;15.50;;
16320;SDS011;8269;50.990;4.494;2023-04-24T01:30:16;21.33;;;15.47;;
16320;SDS011;8269;50.990;4.494;2023-04-24T01:32:42;19.73;;;14.83;;
16320;SDS011;8269;50.990;4.494;2023-04-24T01:35:10;24.67;;;14.97;;
16320;SDS011;8269;50.990;4.494;2023-04-24T01:37:36;20.40;;;14.73;;
16320;SDS011;8269;50.990;4.494;2023-04-24T01:40:05;23.13;;;15.97;;
16320;SDS011;8269;50.990;4.494;2023-04-24T01:42:32;20.37;;;14.87;;
16320;SDS011;8269;50.990;4.494;2023-04-24T01:44:59;20.83;;;14.70;;
16320;SDS011;8269;50.990;4.494;2023-04-24T01:47:26;19.97;;;14.90;;
16320;SDS011;8269;50.990;4.494;2023-04-24T01:49:53;20.40;;;14.23;;
16320;SDS011;8269;50.990;4.494;2023-04-24T01:52:18;20.07;;;14.90;;
16320;SDS011;8269;50.990;4.494;2023-04-24T01:54:44;20.00;;;15.53;;
16320;SDS011;8269;50.990;4.494;2023-04-24T01:57:10;17.63;;;12.43;;
16320;SDS011;8269;50.990;4.494;2023-04-24T01:59:36;24.63;;;14.63;;
16320;SDS011;8269;50.990;4.494;2023-04-24T02:02:02;20.20;;;13.53;;
16320;SDS011;8269;50.990;4.494;2023-04-24T02:04:28;20.07;;;13.20;;
16320;SDS011;8269;50.990;4.494;2023-04-24T02:06:53;19.83;;;13.57;;
16320;SDS011;8269;50.990;4.494;2023-04-24T02:09:19;17.87;;;12.50;;
16320;SDS011;8269;50.990;4.494;2023-04-24T02:11:45;22.80;;;13.13;;
16320;SDS011;8269;50.990;4.494;2023-04-24T02:14:11;18.20;;;13.03;;
16320;SDS011;8269;50.990;4.494;2023-04-24T02:16:37;17.83;;;12.50;;
16320;SDS011;8269;50.990;4.494;2023-04-24T02:19:02;16.13;;;11.37;;
16320;SDS011;8269;50.990;4.494;2023-04-24T02:21:28;17.60;;;11.40;;
16320;SDS011;8269;50.990;4.494;2023-04-24T02:23:55;14.00;;;10.93;;
16320;SDS011;8269;50.990;4.494;2023-04-24T02:26:21;14.97;;;10.87;;
16320;SDS011;8269;50.990;4.494;2023-04-24T02:28:47;15.50;;;10.27;;
16320;SDS011;8269;50.990;4.494;2023-04-24T02:31:13;14.03;;;10.40;;
16320;SDS011;8269;50.990;4.494;2023-04-24T02:33:39;14.73;;;10.70;;
16320;SDS011;8269;50.990;4.494;2023-04-24T02:36:05;16.73;;;10.30;;
16320;SDS011;8269;50.990;4.494;2023-04-24T02:38:30;17.30;;;10.43;;
16320;SDS011;8269;50.990;4.494;2023-04-24T02:40:56;16.30;;;11.37;;
16320;SDS011;8269;50.990;4.494;2023-04-24T02:43:22;17.90;;;12.57;;
16320;SDS011;8269;50.990;4.494;2023-04-24T02:45:48;18.10;;;12.37;;
16320;SDS011;8269;50.990;4.494;2023-04-24T02:48:14;18.07;;;12.57;;
16320;SDS011;8269;50.990;4.494;2023-04-24T02:50:39;17.73;;;12.53;;
16320;SDS011;8269;50.990;4.494;2023-04-24T02:53:05;18.63;;;10.77;;
16320;SDS011;8269;50.990;4.494;2023-04-24T02:55:31;17.07;;;11.33;;
16320;SDS011;8269;50.990;4.494;2023-04-24T02:57:57;19.33;;;12.33;;
16320;SDS011;8269;50.990;4.494;2023-04-24T03:00:23;15.40;;;12.07;;
16320;SDS011;8269;50.990;4.494;2023-04-24T03:02:48;17.00;;;12.43;;
16320;SDS011;8269;50.990;4.494;2023-04-24T03:05:14;19.40;;;12.50;;
16320;SDS011;8269;50.990;4.494;2023-04-24T03:07:40;15.90;;;9.63;;
16320;SDS011;8269;50.990;4.494;2023-04-24T03:10:06;18.87;;;11.03;;
16320;SDS011;8269;50.990;4.494;2023-04-24T03:12:32;16.57;;;11.97;;
16320;SDS011;8269;50.990;4.494;2023-04-24T03:14:58;15.63;;;11.67;;
16320;SDS011;8269;50.990;4.494;2023-04-24T03:17:24;15.87;;;10.57;;
16320;SDS011;8269;50.990;4.494;2023-04-24T03:19:51;19.33;;;12.20;;
16320;SDS011;8269;50.990;4.494;2023-04-24T03:22:16;18.77;;;12.73;;
16320;SDS011;8269;50.990;4.494;2023-04-24T03:24:42;16.10;;;11.17;;
16320;SDS011;8269;50.990;4.494;2023-04-24T03:27:08;18.73;;;13.30;;
16320;SDS011;8269;50.990;4.494;2023-04-24T03:29:33;14.07;;;9.30;;
16320;SDS011;8269;50.990;4.494;2023-04-24T03:31:59;17.10;;;11.17;;
16320;SDS011;8269;50.990;4.494;2023-04-24T03:34:25;18.37;;;11.63;;
16320;SDS011;8269;50.990;4.494;2023-04-24T03:36:51;14.77;;;10.30;;
16320;SDS011;8269;50.990;4.494;2023-04-24T03:39:17;14.27;;;7.43;;
16320;SDS011;8269;50.990;4.494;2023-04-24T03:41:43;13.17;;;9.13;;
16320;SDS011;8269;50.990;4.494;2023-04-24T03:44:09;16.83;;;8.77;;
16320;SDS011;8269;50.990;4.494;2023-04-24T03:46:35;14.53;;;9.30;;
16320;SDS011;8269;50.990;4.494;2023-04-24T03:49:00;15.80;;;9.80;;
16320;SDS011;8269;50.990;4.494;2023-04-24T03:51:26;13.93;;;9.60;;
16320;SDS011;8269;50.990;4.494;2023-04-24T03:53:53;12.27;;;7.13;;
16320;SDS011;8269;50.990;4.494;2023-04-24T03:56:18;13.93;;;9.77;;
16320;SDS011;8269;50.990;4.494;2023-04-24T03:58:45;12.73;;;8.90;;
16320;SDS011;8269;50.990;4.494;2023-04-24T04:01:11;11.20;;;6.80;;
16320;SDS011;8269;50.990;4.494;2023-04-24T04:03:37;13.10;;;9.93;;
16320;SDS011;8269;50.990;4.494;2023-04-24T04:06:02;15.10;;;9.37;;
16320;SDS011;8269;50.990;4.494;2023-04-24T04:08:28;12.53;;;8.57;;
16320;SDS011;8269;50.990;4.494;2023-04-24T04:10:54;11.67;;;7.90;;
16320;SDS011;8269;50.990;4.494;2023-04-24T04:13:20;11.03;;;7.70;;
16320;SDS011;8269;50.990;4.494;2023-04-24T04:15:45;11.83;;;8.77;;
16320;SDS011;8269;50.990;4.494;2023-04-24T04:18:11;13.50;;;8.40;;
16320;SDS011;8269;50.990;4.494;2023-04-24T04:20:37;13.23;;;9.63;;
16320;SDS011;8269;50.990;4.494;2023-04-24T04:23:02;12.73;;;8.90;;
16320;SDS011;8269;50.990;4.494;2023-04-24T04:25:28;15.77;;;9.17;;
16320;SDS011;8269;50.990;4.494;2023-04-24T04:27:54;13.63;;;9.43;;
16320;SDS011;8269;50.990;4.494;2023-04-24T04:30:20;11.90;;;9.33;;
16320;SDS011;8269;50.990;4.494;2023-04-24T04:32:45;12.70;;;8.13;;
16320;SDS011;8269;50.990;4.494;2023-04-24T04:35:12;13.67;;;9.77;;
16320;SDS011;8269;50.990;4.494;2023-04-24T04:37:37;11.90;;;8.40;;
16320;SDS011;8269;50.990;4.494;2023-04-24T04:40:03;15.73;;;10.93;;
16320;SDS011;8269;50.990;4.494;2023-04-24T04:42:32;19.13;;;12.73;;
16320;SDS011;8269;50.990;4.494;2023-04-24T04:45:01;22.87;;;14.20;;
16320;SDS011;8269;50.990;4.494;2023-04-24T04:47:27;25.53;;;15.07;;
16320;SDS011;8269;50.990;4.494;2023-04-24T04:49:53;26.33;;;15.60;;
16320;SDS011;8269;50.990;4.494;2023-04-24T04:52:19;25.50;;;14.83;;
16320;SDS011;8269;50.990;4.494;2023-04-24T04:54:49;20.10;;;13.43;;
16320;SDS011;8269;50.990;4.494;2023-04-24T04:57:15;18.80;;;11.00;;
16320;SDS011;8269;50.990;4.494;2023-04-24T04:59:41;17.37;;;12.07;;
16320;SDS011;8269;50.990;4.494;2023-04-24T05:02:06;17.13;;;11.97;;
16320;SDS011;8269;50.990;4.494;2023-04-24T05:04:32;18.67;;;12.37;;
16320;SDS011;8269;50.990;4.494;2023-04-24T05:06:58;17.97;;;12.43;;
16320;SDS011;8269;50.990;4.494;2023-04-24T05:09:23;19.47;;;13.23;;
16320;SDS011;8269;50.990;4.494;2023-04-24T05:11:52;23.60;;;15.03;;
16320;SDS011;8269;50.990;4.494;2023-04-24T05:14:18;23.63;;;14.40;;
16320;SDS011;8269;50.990;4.494;2023-04-24T05:16:44;18.50;;;11.87;;
16320;SDS011;8269;50.990;4.494;2023-04-24T05:19:10;12.70;;;8.40;;
16320;SDS011;8269;50.990;4.494;2023-04-24T05:21:37;17.73;;;12.73;;
16320;SDS011;8269;50.990;4.494;2023-04-24T05:24:04;16.43;;;11.63;;
16320;SDS011;8269;50.990;4.494;2023-04-24T05:26:30;18.27;;;13.93;;
16320;SDS011;8269;50.990;4.494;2023-04-24T05:28:56;18.67;;;10.67;;
16320;SDS011;8269;50.990;4.494;2023-04-24T05:31:21;19.07;;;11.50;;
16320;SDS011;8269;50.990;4.494;2023-04-24T05:33:47;18.83;;;11.70;;
16320;SDS011;8269;50.990;4.494;2023-04-24T05:36:13;20.03;;;12.07;;
16320;SDS011;8269;50.990;4.494;2023-04-24T05:38:38;20.20;;;12.93;;
16320;SDS011;8269;50.990;4.494;2023-04-24T05:41:04;19.17;;;12.87;;
16320;SDS011;8269;50.990;4.494;2023-04-24T05:43:30;20.70;;;13.03;;
16320;SDS011;8269;50.990;4.494;2023-04-24T05:45:56;21.92;;;12.43;;
16320;SDS011;8269;50.990;4.494;2023-04-24T05:48:22;20.87;;;13.00;;
16320;SDS011;8269;50.990;4.494;2023-04-24T05:50:48;16.27;;;11.03;;
16320;SDS011;8269;50.990;4.494;2023-04-24T05:53:14;20.73;;;12.57;;
16320;SDS011;8269;50.990;4.494;2023-04-24T05:55:39;20.17;;;12.67;;
16320;SDS011;8269;50.990;4.494;2023-04-24T05:58:05;18.23;;;12.43;;
16320;SDS011;8269;50.990;4.494;2023-04-24T06:00:31;17.93;;;12.47;;
16320;SDS011;8269;50.990;4.494;2023-04-24T06:02:57;17.67;;;10.63;;
16320;SDS011;8269;50.990;4.494;2023-04-24T06:05:24;19.73;;;12.00;;
16320;SDS011;8269;50.990;4.494;2023-04-24T06:07:50;22.13;;;12.47;;
16320;SDS011;8269;50.990;4.494;2023-04-24T06:10:16;15.37;;;11.70;;
16320;SDS011;8269;50.990;4.494;2023-04-24T06:12:41;16.57;;;11.43;;
16320;SDS011;8269;50.990;4.494;2023-04-24T06:15:07;19.40;;;12.30;;
16320;SDS011;8269;50.990;4.494;2023-04-24T06:17:33;17.57;;;12.27;;
16320;SDS011;8269;50.990;4.494;2023-04-24T06:19:59;19.93;;;13.43;;
16320;SDS011;8269;50.990;4.494;2023-04-24T06:22:25;22.17;;;13.50;;
16320;SDS011;8269;50.990;4.494;2023-04-24T06:24:50;22.47;;;13.83;;
16320;SDS011;8269;50.990;4.494;2023-04-24T06:27:16;22.73;;;13.80;;
16320;SDS011;8269;50.990;4.494;2023-04-24T06:29:42;16.83;;;11.00;;
16320;SDS011;8269;50.990;4.494;2023-04-24T06:32:08;22.70;;;12.73;;
16320;SDS011;8269;50.990;4.494;2023-04-24T06:34:34;17.00;;;10.73;;
16320;SDS011;8269;50.990;4.494;2023-04-24T06:37:01;21.13;;;12.37;;
16320;SDS011;8269;50.990;4.494;2023-04-24T06:39:27;21.93;;;13.10;;
16320;SDS011;8269;50.990;4.494;2023-04-24T06:41:52;16.77;;;10.83;;
16320;SDS011;8269;50.990;4.494;2023-04-24T06:44:18;20.87;;;12.57;;
16320;SDS011;8269;50.990;4.494;2023-04-24T06:46:44;23.70;;;13.90;;
16320;SDS011;8269;50.990;4.494;2023-04-24T06:49:10;22.57;;;13.07;;
16320;SDS011;8269;50.990;4.494;2023-04-24T06:51:36;22.83;;;13.20;;
16320;SDS011;8269;50.990;4.494;2023-04-24T06:54:01;22.77;;;13.43;;
16320;SDS011;8269;50.990;4.494;2023-04-24T06:56:27;23.10;;;13.60;;
16320;SDS011;8269;50.990;4.494;2023-04-24T06:58:54;21.60;;;13.40;;
16320;SDS011;8269;50.990;4.494;2023-04-24T07:01:20;23.07;;;15.53;;
16320;SDS011;8269;50.990;4.494;2023-04-24T07:03:45;26.00;;;9.97;;
16320;SDS011;8269;50.990;4.494;2023-04-24T07:06:11;22.97;;;16.13;;
16320;SDS011;8269;50.990;4.494;2023-04-24T07:08:37;24.47;;;13.90;;
16320;SDS011;8269;50.990;4.494;2023-04-24T07:11:03;21.80;;;13.20;;
16320;SDS011;8269;50.990;4.494;2023-04-24T07:13:29;18.50;;;14.20;;
16320;SDS011;8269;50.990;4.494;2023-04-24T07:15:55;23.27;;;14.57;;
16320;SDS011;8269;50.990;4.494;2023-04-24T07:18:21;17.27;;;11.57;;
16320;SDS011;8269;50.990;4.494;2023-04-24T07:20:47;18.47;;;12.97;;
16320;SDS011;8269;50.990;4.494;2023-04-24T07:23:15;18.00;;;12.10;;
16320;SDS011;8269;50.990;4.494;2023-04-24T07:25:41;19.13;;;13.13;;
16320;SDS011;8269;50.990;4.494;2023-04-24T07:28:07;20.27;;;12.90;;
16320;SDS011;8269;50.990;4.494;2023-04-24T07:30:33;14.30;;;8.87;;
16320;SDS011;8269;50.990;4.494;2023-04-24T07:32:59;20.53;;;10.20;;
16320;SDS011;8269;50.990;4.494;2023-04-24T07:35:27;16.47;;;10.60;;
16320;SDS011;8269;50.990;4.494;2023-04-24T07:37:53;17.13;;;9.30;;
16320;SDS011;8269;50.990;4.494;2023-04-24T07:40:19;21.77;;;9.37;;
16320;SDS011;8269;50.990;4.494;2023-04-24T07:42:45;15.10;;;7.77;;
16320;SDS011;8269;50.990;4.494;2023-04-24T07:45:13;14.50;;;7.00;;
16320;SDS011;8269;50.990;4.494;2023-04-24T07:47:39;13.80;;;6.10;;
16320;SDS011;8269;50.990;4.494;2023-04-24T07:50:08;14.87;;;5.67;;
16320;SDS011;8269;50.990;4.494;2023-04-24T07:52:34;12.00;;;5.63;;
16320;SDS011;8269;50.990;4.494;2023-04-24T07:55:00;11.93;;;5.57;;
16320;SDS011;8269;50.990;4.494;2023-04-24T07:57:27;11.93;;;5.27;;
16320;SDS011;8269;50.990;4.494;2023-04-24T07:59:53;14.27;;;6.43;;
16320;SDS011;8269;50.990;4.494;2023-04-24T08:02:19;15.37;;;7.63;;
16320;SDS011;8269;50.990;4.494;2023-04-24T08:04:46;13.37;;;7.30;;
16320;SDS011;8269;50.990;4.494;2023-04-24T08:07:12;13.70;;;8.17;;
16320;SDS011;8269;50.990;4.494;2023-04-24T08:09:38;15.97;;;11.20;;
16320;SDS011;8269;50.990;4.494;2023-04-24T08:12:03;17.33;;;10.23;;
16320;SDS011;8269;50.990;4.494;2023-04-24T08:14:29;18.23;;;10.20;;
16320;SDS011;8269;50.990;4.494;2023-04-24T08:16:55;14.93;;;8.70;;
16320;SDS011;8269;50.990;4.494;2023-04-24T08:19:21;16.90;;;9.07;;
16320;SDS011;8269;50.990;4.494;2023-04-24T08:21:47;15.47;;;6.93;;
16320;SDS011;8269;50.990;4.494;2023-04-24T08:24:12;13.30;;;6.53;;
16320;SDS011;8269;50.990;4.494;2023-04-24T08:26:39;13.50;;;7.13;;
16320;SDS011;8269;50.990;4.494;2023-04-24T08:29:04;13.97;;;6.20;;
16320;SDS011;8269;50.990;4.494;2023-04-24T08:31:31;10.80;;;5.17;;
16320;SDS011;8269;50.990;4.494;2023-04-24T08:33:57;11.17;;;5.33;;
16320;SDS011;8269;50.990;4.494;2023-04-24T08:36:24;13.80;;;5.80;;
16320;SDS011;8269;50.990;4.494;2023-04-24T08:38:51;15.70;;;6.27;;
16320;SDS011;8269;50.990;4.494;2023-04-24T08:41:17;13.90;;;5.73;;
16320;SDS011;8269;50.990;4.494;2023-04-24T08:43:45;11.87;;;5.77;;
16320;SDS011;8269;50.990;4.494;2023-04-24T08:46:11;9.87;;;5.13;;
16320;SDS011;8269;50.990;4.494;2023-04-24T08:48:38;13.30;;;5.20;;
16320;SDS011;8269;50.990;4.494;2023-04-24T08:51:06;9.63;;;4.83;;
16320;SDS011;8269;50.990;4.494;2023-04-24T08:53:33;11.33;;;4.90;;
16320;SDS011;8269;50.990;4.494;2023-04-24T08:55:59;9.20;;;4.37;;
16320;SDS011;8269;50.990;4.494;2023-04-24T08:58:26;8.03;;;3.93;;
16320;SDS011;8269;50.990;4.494;2023-04-24T09:00:56;10.33;;;4.90;;
16320;SDS011;8269;50.990;4.494;2023-04-24T09:03:22;9.00;;;4.23;;
16320;SDS011;8269;50.990;4.494;2023-04-24T09:05:49;13.10;;;4.30;;
16320;SDS011;8269;50.990;4.494;2023-04-24T09:08:16;13.63;;;4.47;;
16320;SDS011;8269;50.990;4.494;2023-04-24T09:10:43;13.70;;;4.97;;
16320;SDS011;8269;50.990;4.494;2023-04-24T09:13:09;11.20;;;5.23;;
16320;SDS011;8269;50.990;4.494;2023-04-24T09:15:36;12.33;;;5.00;;
16320;SDS011;8269;50.990;4.494;2023-04-24T09:18:03;12.97;;;5.17;;
16320;SDS011;8269;50.990;4.494;2023-04-24T09:20:30;13.17;;;6.07;;
16320;SDS011;8269;50.990;4.494;2023-04-24T09:22:57;11.98;;;5.70;;
16320;SDS011;8269;50.990;4.494;2023-04-24T09:25:25;9.90;;;5.50;;
16320;SDS011;8269;50.990;4.494;2023-04-24T09:27:59;11.20;;;5.57;;
16320;SDS011;8269;50.990;4.494;2023-04-24T09:30:25;10.33;;;5.30;;
16320;SDS011;8269;50.990;4.494;2023-04-24T09:33:13;10.97;;;5.90;;
16320;SDS011;8269;50.990;4.494;2023-04-24T09:35:48;10.63;;;5.67;;
16320;SDS011;8269;50.990;4.494;2023-04-24T09:38:14;11.17;;;5.20;;
16320;SDS011;8269;50.990;4.494;2023-04-24T09:40:41;11.43;;;5.73;;
16320;SDS011;8269;50.990;4.494;2023-04-24T09:43:10;10.63;;;5.03;;
16320;SDS011;8269;50.990;4.494;2023-04-24T09:45:36;10.23;;;4.77;;
16320;SDS011;8269;50.990;4.494;2023-04-24T09:48:03;9.30;;;4.47;;
16320;SDS011;8269;50.990;4.494;2023-04-24T09:50:32;9.80;;;4.60;;
16320;SDS011;8269;50.990;4.494;2023-04-24T09:53:01;8.97;;;4.47;;
16320;SDS011;8269;50.990;4.494;2023-04-24T09:55:27;9.37;;;4.13;;
16320;SDS011;8269;50.990;4.494;2023-04-24T09:57:57;8.80;;;3.97;;
16320;SDS011;8269;50.990;4.494;2023-04-24T10:00:25;8.70;;;3.53;;
16320;SDS011;8269;50.990;4.494;2023-04-24T10:02:56;6.93;;;3.53;;
16320;SDS011;8269;50.990;4.494;2023-04-24T10:05:27;8.33;;;3.40;;
16320;SDS011;8269;50.990;4.494;2023-04-24T10:08:00;6.30;;;3.10;;
16320;SDS011;8269;50.990;4.494;2023-04-24T10:10:33;9.50;;;3.70;;
16320;SDS011;8269;50.990;4.494;2023-04-24T10:13:01;9.17;;;3.80;;
16320;SDS011;8269;50.990;4.494;2023-04-24T10:15:28;10.90;;;4.07;;
16320;SDS011;8269;50.990;4.494;2023-04-24T10:17:54;10.73;;;4.00;;
16320;SDS011;8269;50.990;4.494;2023-04-24T10:20:23;7.87;;;3.50;;
16320;SDS011;8269;50.990;4.494;2023-04-24T10:22:51;9.37;;;3.80;;
16320;SDS011;8269;50.990;4.494;2023-04-24T10:25:19;7.80;;;3.80;;
16320;SDS011;8269;50.990;4.494;2023-04-24T10:27:55;7.40;;;3.70;;
16320;SDS011;8269;50.990;4.494;2023-04-24T10:30:27;8.00;;;4.07;;
16320;SDS011;8269;50.990;4.494;2023-04-24T10:32:54;9.37;;;4.13;;
16320;SDS011;8269;50.990;4.494;2023-04-24T10:35:20;9.37;;;4.10;;
16320;SDS011;8269;50.990;4.494;2023-04-24T10:38:06;10.00;;;4.37;;
16320;SDS011;8269;50.990;4.494;2023-04-24T10:40:47;8.73;;;4.20;;
16320;SDS011;8269;50.990;4.494;2023-04-24T10:43:13;9.53;;;4.50;;
16320;SDS011;8269;50.990;4.494;2023-04-24T10:45:42;9.80;;;4.47;;
16320;SDS011;8269;50.990;4.494;2023-04-24T10:48:26;10.60;;;3.90;;
16320;SDS011;8269;50.990;4.494;2023-04-24T10:50:52;11.30;;;3.40;;
16320;SDS011;8269;50.990;4.494;2023-04-24T10:53:19;7.90;;;3.43;;
16320;SDS011;8269;50.990;4.494;2023-04-24T10:55:49;10.33;;;3.33;;
16320;SDS011;8269;50.990;4.494;2023-04-24T10:58:15;7.57;;;3.60;;
16320;SDS011;8269;50.990;4.494;2023-04-24T11:00:42;7.90;;;3.60;;
16320;SDS011;8269;50.990;4.494;2023-04-24T11:03:33;7.97;;;3.97;;
16320;SDS011;8269;50.990;4.494;2023-04-24T11:08:25;7.07;;;3.70;;
16320;SDS011;8269;50.990;4.494;2023-04-24T11:10:55;7.67;;;4.10;;
16320;SDS011;8269;50.990;4.494;2023-04-24T11:13:23;7.77;;;3.83;;
16320;SDS011;8269;50.990;4.494;2023-04-24T11:16:51;8.00;;;4.13;;
16320;SDS011;8269;50.990;4.494;2023-04-24T11:18:49;6.07;;;3.42;;
16320;SDS011;8269;50.990;4.494;2023-04-24T11:21:18;7.27;;;3.70;;
16320;SDS011;8269;50.990;4.494;2023-04-24T11:23:44;8.90;;;3.20;;
16320;SDS011;8269;50.990;4.494;2023-04-24T11:26:12;7.03;;;3.20;;
16320;SDS011;8269;50.990;4.494;2023-04-24T11:28:48;10.13;;;3.10;;
16320;SDS011;8269;50.990;4.494;2023-04-24T11:31:34;7.57;;;3.60;;
16320;SDS011;8269;50.990;4.494;2023-04-24T11:34:09;8.40;;;3.88;;
16320;SDS011;8269;50.990;4.494;2023-04-24T11:36:36;8.87;;;3.83;;
16320;SDS011;8269;50.990;4.494;2023-04-24T11:39:02;7.90;;;3.75;;
16320;SDS011;8269;50.990;4.494;2023-04-24T11:41:28;8.80;;;3.92;;
16320;SDS011;8269;50.990;4.494;2023-04-24T11:43:55;7.57;;;3.57;;
16320;SDS011;8269;50.990;4.494;2023-04-24T11:46:21;8.10;;;3.33;;
16320;SDS011;8269;50.990;4.494;2023-04-24T11:48:48;6.83;;;3.80;;
16320;SDS011;8269;50.990;4.494;2023-04-24T11:51:14;8.47;;;3.73;;
16320;SDS011;8269;50.990;4.494;2023-04-24T11:53:40;6.80;;;3.33;;
16320;SDS011;8269;50.990;4.494;2023-04-24T11:56:08;9.23;;;3.77;;
16320;SDS011;8269;50.990;4.494;2023-04-24T11:58:34;6.73;;;3.87;;
16320;SDS011;8269;50.990;4.494;2023-04-24T12:01:01;7.20;;;4.03;;
16320;SDS011;8269;50.990;4.494;2023-04-24T12:03:27;12.60;;;5.73;;
16320;SDS011;8269;50.990;4.494;2023-04-24T12:06:04;7.95;;;4.00;;
16320;SDS011;8269;50.990;4.494;2023-04-24T12:08:31;7.47;;;3.30;;
16320;SDS011;8269;50.990;4.494;2023-04-24T12:10:57;8.27;;;3.90;;
16320;SDS011;8269;50.990;4.494;2023-04-24T12:13:25;10.10;;;4.30;;
16320;SDS011;8269;50.990;4.494;2023-04-24T12:15:51;8.37;;;4.13;;
16320;SDS011;8269;50.990;4.494;2023-04-24T12:18:17;8.57;;;4.20;;
16320;SDS011;8269;50.990;4.494;2023-04-24T12:20:43;9.40;;;3.80;;
16320;SDS011;8269;50.990;4.494;2023-04-24T12:23:09;8.70;;;4.30;;
16320;SDS011;8269;50.990;4.494;2023-04-24T12:25:36;7.45;;;4.47;;
16320;SDS011;8269;50.990;4.494;2023-04-24T12:30:32;5.10;;;2.92;;
16320;SDS011;8269;50.990;4.494;2023-04-24T12:32:59;5.80;;;3.42;;
16320;SDS011;8269;50.990;4.494;2023-04-24T12:35:29;7.38;;;3.20;;
16320;SDS011;8269;50.990;4.494;2023-04-24T12:38:04;9.50;;;3.70;;
16320;SDS011;8269;50.990;4.494;2023-04-24T12:40:31;7.30;;;3.37;;
16320;SDS011;8269;50.990;4.494;2023-04-24T12:42:57;7.80;;;3.78;;
16320;SDS011;8269;50.990;4.494;2023-04-24T12:45:23;6.53;;;3.73;;
16320;SDS011;8269;50.990;4.494;2023-04-24T12:47:50;7.20;;;3.30;;
16320;SDS011;8269;50.990;4.494;2023-04-24T12:50:16;8.80;;;3.63;;
16320;SDS011;8269;50.990;4.494;2023-04-24T12:52:42;7.27;;;3.93;;
16320;SDS011;8269;50.990;4.494;2023-04-24T12:55:09;6.87;;;3.43;;
16320;SDS011;8269;50.990;4.494;2023-04-24T12:57:37;6.33;;;3.73;;
16320;SDS011;8269;50.990;4.494;2023-04-24T13:00:04;7.20;;;3.93;;
16320;SDS011;8269;50.990;4.494;2023-04-24T13:02:31;7.40;;;3.60;;
16320;SDS011;8269;50.990;4.494;2023-04-24T13:04:57;6.50;;;3.40;;
16320;SDS011;8269;50.990;4.494;2023-04-24T13:07:24;7.93;;;3.77;;
16320;SDS011;8269;50.990;4.494;2023-04-24T13:09:50;6.38;;;3.50;;
16320;SDS011;8269;50.990;4.494;2023-04-24T13:12:17;9.03;;;3.43;;
16320;SDS011;8269;50.990;4.494;2023-04-24T13:14:43;8.30;;;3.75;;
16320;SDS011;8269;50.990;4.494;2023-04-24T13:17:10;5.70;;;3.60;;
16320;SDS011;8269;50.990;4.494;2023-04-24T13:19:38;7.32;;;3.80;;
16320;SDS011;8269;50.990;4.494;2023-04-24T13:22:05;8.00;;;3.13;;
16320;SDS011;8269;50.990;4.494;2023-04-24T13:24:31;8.80;;;3.45;;
16320;SDS011;8269;50.990;4.494;2023-04-24T13:26:57;6.55;;;3.25;;
16320;SDS011;8269;50.990;4.494;2023-04-24T13:29:23;7.45;;;3.20;;
16320;SDS011;8269;50.990;4.494;2023-04-24T13:31:50;6.20;;;2.80;;
16320;SDS011;8269;50.990;4.494;2023-04-24T13:34:17;9.10;;;3.27;;
16320;SDS011;8269;50.990;4.494;2023-04-24T13:36:43;7.10;;;2.67;;
16320;SDS011;8269;50.990;4.494;2023-04-24T13:39:09;7.38;;;2.40;;
16320;SDS011;8269;50.990;4.494;2023-04-24T13:41:36;5.23;;;2.37;;
16320;SDS011;8269;50.990;4.494;2023-04-24T13:44:02;5.65;;;2.40;;
16320;SDS011;8269;50.990;4.494;2023-04-24T13:46:28;5.30;;;2.20;;
16320;SDS011;8269;50.990;4.494;2023-04-24T13:48:55;5.03;;;2.20;;
16320;SDS011;8269;50.990;4.494;2023-04-24T13:51:21;5.20;;;2.10;;
16320;SDS011;8269;50.990;4.494;2023-04-24T13:53:47;6.93;;;2.30;;
16320;SDS011;8269;50.990;4.494;2023-04-24T13:56:14;5.82;;;2.25;;
16320;SDS011;8269;50.990;4.494;2023-04-24T13:58:40;3.33;;;1.63;;
16320;SDS011;8269;50.990;4.494;2023-04-24T14:01:06;6.50;;;2.60;;
16320;SDS011;8269;50.990;4.494;2023-04-24T14:03:33;4.53;;;2.47;;
16320;SDS011;8269;50.990;4.494;2023-04-24T14:05:59;7.35;;;3.63;;
16320;SDS011;8269;50.990;4.494;2023-04-24T14:08:25;7.40;;;3.20;;
16320;SDS011;8269;50.990;4.494;2023-04-24T14:10:51;11.10;;;4.32;;
16320;SDS011;8269;50.990;4.494;2023-04-24T14:13:17;7.23;;;3.00;;
16320;SDS011;8269;50.990;4.494;2023-04-24T14:15:43;8.52;;;2.80;;
16320;SDS011;8269;50.990;4.494;2023-04-24T14:18:10;5.23;;;3.00;;
16320;SDS011;8269;50.990;4.494;2023-04-24T14:20:36;5.93;;;3.08;;
16320;SDS011;8269;50.990;4.494;2023-04-24T14:23:03;8.73;;;3.60;;
16320;SDS011;8269;50.990;4.494;2023-04-24T14:25:29;5.40;;;3.13;;
16320;SDS011;8269;50.990;4.494;2023-04-24T14:27:55;9.33;;;5.13;;
16320;SDS011;8269;50.990;4.494;2023-04-24T14:30:22;5.77;;;3.43;;
16320;SDS011;8269;50.990;4.494;2023-04-24T14:32:48;6.57;;;3.77;;
16320;SDS011;8269;50.990;4.494;2023-04-24T14:35:14;7.13;;;3.30;;
16320;SDS011;8269;50.990;4.494;2023-04-24T14:37:40;6.27;;;2.40;;
16320;SDS011;8269;50.990;4.494;2023-04-24T14:40:07;4.37;;;2.60;;
16320;SDS011;8269;50.990;4.494;2023-04-24T14:42:34;4.43;;;2.27;;
16320;SDS011;8269;50.990;4.494;2023-04-24T14:45:00;5.03;;;2.27;;
16320;SDS011;8269;50.990;4.494;2023-04-24T14:47:26;3.75;;;1.92;;
16320;SDS011;8269;50.990;4.494;2023-04-24T14:49:54;4.13;;;2.10;;